sensor_id;sensor_type;location;lat;lon;timestamp;P1;durP1;ratioP1;P2;durP2;ratioP2
23628;SDS011;11991;57.150;-2.134;2023-04-16T00:01:11;4.45;;;1.60;;
23628;SDS011;11991;57.150;-2.134;2023-04-16T00:03:39;9.32;;;4.18;;
23628;SDS011;11991;57.150;-2.134;2023-04-16T00:06:07;11.13;;;3.97;;
23628;SDS011;11991;57.150;-2.134;2023-04-16T00:08:36;3.88;;;2.13;;
23628;SDS011;11991;57.150;-2.134;2023-04-16T00:11:04;4.72;;;2.85;;
23628;SDS011;11991;57.150;-2.134;2023-04-16T00:13:32;3.70;;;2.08;;
23628;SDS011;11991;57.150;-2.134;2023-04-16T00:15:59;5.22;;;2.97;;
23628;SDS011;11991;57.150;-2.134;2023-04-16T00:18:27;5.32;;;2.90;;
23628;SDS011;11991;57.150;-2.134;2023-04-16T00:20:54;8.50;;;3.75;;
23628;SDS011;11991;57.150;-2.134;2023-04-16T00:23:22;4.00;;;2.47;;
23628;SDS011;11991;57.150;-2.134;2023-04-16T00:25:50;6.15;;;3.13;;
23628;SDS011;11991;57.150;-2.134;2023-04-16T00:28:22;4.57;;;2.90;;
23628;SDS011;11991;57.150;-2.134;2023-04-16T00:30:50;4.18;;;2.25;;
23628;SDS011;11991;57.150;-2.134;2023-04-16T00:33:17;4.35;;;2.13;;
23628;SDS011;11991;57.150;-2.134;2023-04-16T00:35:45;3.50;;;2.40;;
23628;SDS011;11991;57.150;-2.134;2023-04-16T00:38:13;3.90;;;2.58;;
23628;SDS011;11991;57.150;-2.134;2023-04-16T00:40:41;3.55;;;2.25;;
23628;SDS011;11991;57.150;-2.134;2023-04-16T00:43:09;3.60;;;2.28;;
23628;SDS011;11991;57.150;-2.134;2023-04-16T00:45:37;5.43;;;2.75;;
23628;SDS011;11991;57.150;-2.134;2023-04-16T00:48:07;4.40;;;2.53;;
23628;SDS011;11991;57.150;-2.134;2023-04-16T00:50:35;6.10;;;2.90;;
23628;SDS011;11991;57.150;-2.134;2023-04-16T00:53:05;7.38;;;3.90;;
23628;SDS011;11991;57.150;-2.134;2023-04-16T00:55:33;4.40;;;2.83;;
23628;SDS011;11991;57.150;-2.134;2023-04-16T00:58:01;7.93;;;3.30;;
23628;SDS011;11991;57.150;-2.134;2023-04-16T01:00:29;5.13;;;3.03;;
23628;SDS011;11991;57.150;-2.134;2023-04-16T01:02:57;10.52;;;4.07;;
23628;SDS011;11991;57.150;-2.134;2023-04-16T01:05:26;8.10;;;3.15;;
23628;SDS011;11991;57.150;-2.134;2023-04-16T01:07:56;5.28;;;2.90;;
23628;SDS011;11991;57.150;-2.134;2023-04-16T01:10:26;8.55;;;4.30;;
23628;SDS011;11991;57.150;-2.134;2023-04-16T01:12:54;4.60;;;2.65;;
23628;SDS011;11991;57.150;-2.134;2023-04-16T01:15:23;8.30;;;4.13;;
23628;SDS011;11991;57.150;-2.134;2023-04-16T01:17:50;5.30;;;2.70;;
23628;SDS011;11991;57.150;-2.134;2023-04-16T01:20:18;4.80;;;2.97;;
23628;SDS011;11991;57.150;-2.134;2023-04-16T01:22:46;6.10;;;3.58;;
23628;SDS011;11991;57.150;-2.134;2023-04-16T01:25:13;4.35;;;2.65;;
23628;SDS011;11991;57.150;-2.134;2023-04-16T01:27:42;6.00;;;3.40;;
23628;SDS011;11991;57.150;-2.134;2023-04-16T01:30:09;5.10;;;3.55;;
23628;SDS011;11991;57.150;-2.134;2023-04-16T01:32:57;3.67;;;2.58;;
23628;SDS011;11991;57.150;-2.134;2023-04-16T01:35:25;4.45;;;3.15;;
23628;SDS011;11991;57.150;-2.134;2023-04-16T01:37:53;12.05;;;5.32;;
23628;SDS011;11991;57.150;-2.134;2023-04-16T01:40:20;5.22;;;2.97;;
23628;SDS011;11991;57.150;-2.134;2023-04-16T01:42:48;6.25;;;3.53;;
23628;SDS011;11991;57.150;-2.134;2023-04-16T01:45:18;10.52;;;4.32;;
23628;SDS011;11991;57.150;-2.134;2023-04-16T01:47:50;8.18;;;4.53;;
23628;SDS011;11991;57.150;-2.134;2023-04-16T01:50:19;3.70;;;2.35;;
23628;SDS011;11991;57.150;-2.134;2023-04-16T01:52:47;4.80;;;2.97;;
23628;SDS011;11991;57.150;-2.134;2023-04-16T01:55:14;4.18;;;2.05;;
23628;SDS011;11991;57.150;-2.134;2023-04-16T01:57:42;4.40;;;2.72;;
23628;SDS011;11991;57.150;-2.134;2023-04-16T02:00:11;5.45;;;2.88;;
23628;SDS011;11991;57.150;-2.134;2023-04-16T02:02:44;3.28;;;1.95;;
23628;SDS011;11991;57.150;-2.134;2023-04-16T02:05:19;3.92;;;2.28;;
23628;SDS011;11991;57.150;-2.134;2023-04-16T02:07:46;7.43;;;3.53;;
23628;SDS011;11991;57.150;-2.134;2023-04-16T02:10:15;5.68;;;2.85;;
23628;SDS011;11991;57.150;-2.134;2023-04-16T02:12:43;5.32;;;2.45;;
23628;SDS011;11991;57.150;-2.134;2023-04-16T02:15:12;4.53;;;3.05;;
23628;SDS011;11991;57.150;-2.134;2023-04-16T02:17:39;7.00;;;3.28;;
23628;SDS011;11991;57.150;-2.134;2023-04-16T02:20:10;7.60;;;3.33;;
23628;SDS011;11991;57.150;-2.134;2023-04-16T02:22:50;3.70;;;2.03;;
23628;SDS011;11991;57.150;-2.134;2023-04-16T02:25:20;5.30;;;3.10;;
23628;SDS011;11991;57.150;-2.134;2023-04-16T02:27:50;4.03;;;2.75;;
23628;SDS011;11991;57.150;-2.134;2023-04-16T02:30:35;3.47;;;2.33;;
23628;SDS011;11991;57.150;-2.134;2023-04-16T02:33:05;6.28;;;3.28;;
23628;SDS011;11991;57.150;-2.134;2023-04-16T02:35:41;3.38;;;2.28;;
23628;SDS011;11991;57.150;-2.134;2023-04-16T02:38:08;3.35;;;2.13;;
23628;SDS011;11991;57.150;-2.134;2023-04-16T02:40:36;5.40;;;3.13;;
23628;SDS011;11991;57.150;-2.134;2023-04-16T02:43:06;10.27;;;5.47;;
23628;SDS011;11991;57.150;-2.134;2023-04-16T02:45:34;7.10;;;3.90;;
23628;SDS011;11991;57.150;-2.134;2023-04-16T02:48:05;5.45;;;3.70;;
23628;SDS011;11991;57.150;-2.134;2023-04-16T02:50:34;4.35;;;2.85;;
23628;SDS011;11991;57.150;-2.134;2023-04-16T02:53:02;5.90;;;3.00;;
23628;SDS011;11991;57.150;-2.134;2023-04-16T02:55:30;5.40;;;2.80;;
23628;SDS011;11991;57.150;-2.134;2023-04-16T02:57:57;6.88;;;3.10;;
23628;SDS011;11991;57.150;-2.134;2023-04-16T03:00:25;3.58;;;2.05;;
23628;SDS011;11991;57.150;-2.134;2023-04-16T03:02:53;2.85;;;2.15;;
23628;SDS011;11991;57.150;-2.134;2023-04-16T03:05:21;4.38;;;2.53;;
23628;SDS011;11991;57.150;-2.134;2023-04-16T03:07:49;7.88;;;4.13;;
23628;SDS011;11991;57.150;-2.134;2023-04-16T03:10:25;6.15;;;3.72;;
23628;SDS011;11991;57.150;-2.134;2023-04-16T03:12:52;2.88;;;2.25;;
23628;SDS011;11991;57.150;-2.134;2023-04-16T03:15:20;3.95;;;2.63;;
23628;SDS011;11991;57.150;-2.134;2023-04-16T03:17:47;4.10;;;2.63;;
23628;SDS011;11991;57.150;-2.134;2023-04-16T03:20:15;9.25;;;4.03;;
23628;SDS011;11991;57.150;-2.134;2023-04-16T03:22:46;3.53;;;2.55;;
23628;SDS011;11991;57.150;-2.134;2023-04-16T03:25:13;6.10;;;2.75;;
23628;SDS011;11991;57.150;-2.134;2023-04-16T03:27:41;5.32;;;2.30;;
23628;SDS011;11991;57.150;-2.134;2023-04-16T03:30:11;4.15;;;1.95;;
23628;SDS011;11991;57.150;-2.134;2023-04-16T03:32:39;2.92;;;2.22;;
23628;SDS011;11991;57.150;-2.134;2023-04-16T03:35:08;8.55;;;4.15;;
23628;SDS011;11991;57.150;-2.134;2023-04-16T03:37:36;3.53;;;2.30;;
23628;SDS011;11991;57.150;-2.134;2023-04-16T03:40:04;3.47;;;2.17;;
23628;SDS011;11991;57.150;-2.134;2023-04-16T03:42:33;4.68;;;2.58;;
23628;SDS011;11991;57.150;-2.134;2023-04-16T03:45:01;4.18;;;2.88;;
23628;SDS011;11991;57.150;-2.134;2023-04-16T03:47:30;11.88;;;5.85;;
23628;SDS011;11991;57.150;-2.134;2023-04-16T03:50:01;4.82;;;2.60;;
23628;SDS011;11991;57.150;-2.134;2023-04-16T03:52:29;5.15;;;3.65;;
23628;SDS011;11991;57.150;-2.134;2023-04-16T03:54:57;3.35;;;2.53;;
23628;SDS011;11991;57.150;-2.134;2023-04-16T03:57:26;6.05;;;3.28;;
23628;SDS011;11991;57.150;-2.134;2023-04-16T03:59:58;9.65;;;4.32;;
23628;SDS011;11991;57.150;-2.134;2023-04-16T04:02:28;5.00;;;2.85;;
23628;SDS011;11991;57.150;-2.134;2023-04-16T04:04:56;3.33;;;2.80;;
23628;SDS011;11991;57.150;-2.134;2023-04-16T04:07:28;2.85;;;2.38;;
23628;SDS011;11991;57.150;-2.134;2023-04-16T04:09:55;4.50;;;2.88;;
23628;SDS011;11991;57.150;-2.134;2023-04-16T04:12:22;5.55;;;3.00;;
23628;SDS011;11991;57.150;-2.134;2023-04-16T04:14:50;5.78;;;2.70;;
23628;SDS011;11991;57.150;-2.134;2023-04-16T04:17:17;6.75;;;3.10;;
23628;SDS011;11991;57.150;-2.134;2023-04-16T04:19:44;5.03;;;2.83;;
23628;SDS011;11991;57.150;-2.134;2023-04-16T04:22:26;3.90;;;2.13;;
23628;SDS011;11991;57.150;-2.134;2023-04-16T04:24:54;5.95;;;3.58;;
23628;SDS011;11991;57.150;-2.134;2023-04-16T04:27:21;7.97;;;3.50;;
23628;SDS011;11991;57.150;-2.134;2023-04-16T04:29:48;4.20;;;2.83;;
23628;SDS011;11991;57.150;-2.134;2023-04-16T04:32:16;6.10;;;3.30;;
23628;SDS011;11991;57.150;-2.134;2023-04-16T04:34:44;4.68;;;2.83;;
23628;SDS011;11991;57.150;-2.134;2023-04-16T04:37:11;4.85;;;3.05;;
23628;SDS011;11991;57.150;-2.134;2023-04-16T04:39:39;4.00;;;2.50;;
23628;SDS011;11991;57.150;-2.134;2023-04-16T04:42:06;2.83;;;2.05;;
23628;SDS011;11991;57.150;-2.134;2023-04-16T04:44:34;6.35;;;3.35;;
23628;SDS011;11991;57.150;-2.134;2023-04-16T04:47:01;7.22;;;3.17;;
23628;SDS011;11991;57.150;-2.134;2023-04-16T04:49:29;3.97;;;2.92;;
23628;SDS011;11991;57.150;-2.134;2023-04-16T04:51:56;7.45;;;3.20;;
23628;SDS011;11991;57.150;-2.134;2023-04-16T04:54:23;3.20;;;2.00;;
23628;SDS011;11991;57.150;-2.134;2023-04-16T04:56:52;3.63;;;2.60;;
23628;SDS011;11991;57.150;-2.134;2023-04-16T04:59:19;6.78;;;2.65;;
23628;SDS011;11991;57.150;-2.134;2023-04-16T05:01:47;3.42;;;2.55;;
23628;SDS011;11991;57.150;-2.134;2023-04-16T05:04:15;6.68;;;3.30;;
23628;SDS011;11991;57.150;-2.134;2023-04-16T05:06:43;2.90;;;2.30;;
23628;SDS011;11991;57.150;-2.134;2023-04-16T05:09:10;4.35;;;2.25;;
23628;SDS011;11991;57.150;-2.134;2023-04-16T05:11:37;3.33;;;2.35;;
23628;SDS011;11991;57.150;-2.134;2023-04-16T05:14:04;6.30;;;3.78;;
23628;SDS011;11991;57.150;-2.134;2023-04-16T05:16:34;4.40;;;3.40;;
23628;SDS011;11991;57.150;-2.134;2023-04-16T05:19:02;9.48;;;3.88;;
23628;SDS011;11991;57.150;-2.134;2023-04-16T05:21:30;5.07;;;2.97;;
23628;SDS011;11991;57.150;-2.134;2023-04-16T05:23:57;7.68;;;3.00;;
23628;SDS011;11991;57.150;-2.134;2023-04-16T05:26:24;4.00;;;2.17;;
23628;SDS011;11991;57.150;-2.134;2023-04-16T05:28:52;4.13;;;2.75;;
23628;SDS011;11991;57.150;-2.134;2023-04-16T05:31:19;5.32;;;3.65;;
23628;SDS011;11991;57.150;-2.134;2023-04-16T05:33:47;5.75;;;3.60;;
23628;SDS011;11991;57.150;-2.134;2023-04-16T05:36:14;3.40;;;2.63;;
23628;SDS011;11991;57.150;-2.134;2023-04-16T05:38:41;8.52;;;4.32;;
23628;SDS011;11991;57.150;-2.134;2023-04-16T05:41:08;8.05;;;3.95;;
23628;SDS011;11991;57.150;-2.134;2023-04-16T05:43:36;4.95;;;2.97;;
23628;SDS011;11991;57.150;-2.134;2023-04-16T05:46:03;4.28;;;2.58;;
23628;SDS011;11991;57.150;-2.134;2023-04-16T05:48:30;5.50;;;3.10;;
23628;SDS011;11991;57.150;-2.134;2023-04-16T05:50:57;4.50;;;2.58;;
23628;SDS011;11991;57.150;-2.134;2023-04-16T05:53:25;4.35;;;2.83;;
23628;SDS011;11991;57.150;-2.134;2023-04-16T05:55:52;5.40;;;3.30;;
23628;SDS011;11991;57.150;-2.134;2023-04-16T05:58:19;3.28;;;2.47;;
23628;SDS011;11991;57.150;-2.134;2023-04-16T06:00:46;3.80;;;2.20;;
23628;SDS011;11991;57.150;-2.134;2023-04-16T06:03:14;5.45;;;3.58;;
23628;SDS011;11991;57.150;-2.134;2023-04-16T06:05:41;4.25;;;2.50;;
23628;SDS011;11991;57.150;-2.134;2023-04-16T06:08:09;4.93;;;2.65;;
23628;SDS011;11991;57.150;-2.134;2023-04-16T06:10:36;5.28;;;3.35;;
23628;SDS011;11991;57.150;-2.134;2023-04-16T06:13:04;3.78;;;2.78;;
23628;SDS011;11991;57.150;-2.134;2023-04-16T06:15:31;5.75;;;3.33;;
23628;SDS011;11991;57.150;-2.134;2023-04-16T06:17:58;6.03;;;3.60;;
23628;SDS011;11991;57.150;-2.134;2023-04-16T06:20:26;6.43;;;3.50;;
23628;SDS011;11991;57.150;-2.134;2023-04-16T06:22:54;5.45;;;3.05;;
23628;SDS011;11991;57.150;-2.134;2023-04-16T06:25:21;5.03;;;2.97;;
23628;SDS011;11991;57.150;-2.134;2023-04-16T06:27:49;2.83;;;2.00;;
23628;SDS011;11991;57.150;-2.134;2023-04-16T06:30:16;5.90;;;3.13;;
23628;SDS011;11991;57.150;-2.134;2023-04-16T06:32:45;5.72;;;3.08;;
23628;SDS011;11991;57.150;-2.134;2023-04-16T06:35:12;4.00;;;2.60;;
23628;SDS011;11991;57.150;-2.134;2023-04-16T06:37:39;4.10;;;2.55;;
23628;SDS011;11991;57.150;-2.134;2023-04-16T06:40:07;3.83;;;2.78;;
23628;SDS011;11991;57.150;-2.134;2023-04-16T06:42:34;5.10;;;2.88;;
23628;SDS011;11991;57.150;-2.134;2023-04-16T06:45:02;4.50;;;2.95;;
23628;SDS011;11991;57.150;-2.134;2023-04-16T06:47:29;2.65;;;2.15;;
23628;SDS011;11991;57.150;-2.134;2023-04-16T06:49:57;3.72;;;1.73;;
23628;SDS011;11991;57.150;-2.134;2023-04-16T06:52:24;4.75;;;3.20;;
23628;SDS011;11991;57.150;-2.134;2023-04-16T06:54:51;3.72;;;1.95;;
23628;SDS011;11991;57.150;-2.134;2023-04-16T06:57:18;10.75;;;3.20;;
23628;SDS011;11991;57.150;-2.134;2023-04-16T06:59:45;5.70;;;2.50;;
23628;SDS011;11991;57.150;-2.134;2023-04-16T07:02:12;4.03;;;2.45;;
23628;SDS011;11991;57.150;-2.134;2023-04-16T07:04:40;3.30;;;1.75;;
23628;SDS011;11991;57.150;-2.134;2023-04-16T07:07:07;4.55;;;2.20;;
23628;SDS011;11991;57.150;-2.134;2023-04-16T07:09:34;2.53;;;1.70;;
23628;SDS011;11991;57.150;-2.134;2023-04-16T07:12:05;3.40;;;1.60;;
23628;SDS011;11991;57.150;-2.134;2023-04-16T07:14:33;6.20;;;2.10;;
23628;SDS011;11991;57.150;-2.134;2023-04-16T07:17:00;3.10;;;1.58;;
23628;SDS011;11991;57.150;-2.134;2023-04-16T07:19:28;4.18;;;2.30;;
23628;SDS011;11991;57.150;-2.134;2023-04-16T07:21:58;2.47;;;1.35;;
23628;SDS011;11991;57.150;-2.134;2023-04-16T07:24:26;2.47;;;1.42;;
23628;SDS011;11991;57.150;-2.134;2023-04-16T07:26:53;3.17;;;1.73;;
23628;SDS011;11991;57.150;-2.134;2023-04-16T07:29:21;2.88;;;1.63;;
23628;SDS011;11991;57.150;-2.134;2023-04-16T07:31:48;3.47;;;1.60;;
23628;SDS011;11991;57.150;-2.134;2023-04-16T07:34:15;1.10;;;1.00;;
23628;SDS011;11991;57.150;-2.134;2023-04-16T07:36:42;1.67;;;1.25;;
23628;SDS011;11991;57.150;-2.134;2023-04-16T07:39:09;1.80;;;1.10;;
23628;SDS011;11991;57.150;-2.134;2023-04-16T07:41:37;2.53;;;1.20;;
23628;SDS011;11991;57.150;-2.134;2023-04-16T07:44:06;1.80;;;0.90;;
23628;SDS011;11991;57.150;-2.134;2023-04-16T07:46:33;1.85;;;0.90;;
23628;SDS011;11991;57.150;-2.134;2023-04-16T07:49:12;0.77;;;0.73;;
23628;SDS011;11991;57.150;-2.134;2023-04-16T07:51:39;1.30;;;0.90;;
23628;SDS011;11991;57.150;-2.134;2023-04-16T07:54:06;2.17;;;1.38;;
23628;SDS011;11991;57.150;-2.134;2023-04-16T07:56:33;1.13;;;0.70;;
23628;SDS011;11991;57.150;-2.134;2023-04-16T07:59:01;2.65;;;1.05;;
23628;SDS011;11991;57.150;-2.134;2023-04-16T08:01:44;1.15;;;0.82;;
23628;SDS011;11991;57.150;-2.134;2023-04-16T08:04:11;0.75;;;0.63;;
23628;SDS011;11991;57.150;-2.134;2023-04-16T08:06:39;1.05;;;0.75;;
23628;SDS011;11991;57.150;-2.134;2023-04-16T08:09:07;1.45;;;0.70;;
23628;SDS011;11991;57.150;-2.134;2023-04-16T08:11:34;1.30;;;0.73;;
23628;SDS011;11991;57.150;-2.134;2023-04-16T08:14:01;1.23;;;0.50;;
23628;SDS011;11991;57.150;-2.134;2023-04-16T08:16:29;0.60;;;0.60;;
23628;SDS011;11991;57.150;-2.134;2023-04-16T08:18:56;1.58;;;0.80;;
23628;SDS011;11991;57.150;-2.134;2023-04-16T08:21:26;0.70;;;0.70;;
23628;SDS011;11991;57.150;-2.134;2023-04-16T08:23:54;0.52;;;0.52;;
23628;SDS011;11991;57.150;-2.134;2023-04-16T08:26:22;0.70;;;0.60;;
23628;SDS011;11991;57.150;-2.134;2023-04-16T08:28:49;2.47;;;1.20;;
23628;SDS011;11991;57.150;-2.134;2023-04-16T08:31:16;0.60;;;0.60;;
23628;SDS011;11991;57.150;-2.134;2023-04-16T08:33:43;2.00;;;0.90;;
23628;SDS011;11991;57.150;-2.134;2023-04-16T08:36:11;1.33;;;0.80;;
23628;SDS011;11991;57.150;-2.134;2023-04-16T08:38:38;1.90;;;0.88;;
23628;SDS011;11991;57.150;-2.134;2023-04-16T08:41:06;0.80;;;0.70;;
23628;SDS011;11991;57.150;-2.134;2023-04-16T08:43:38;0.88;;;0.70;;
23628;SDS011;11991;57.150;-2.134;2023-04-16T08:46:10;1.13;;;1.00;;
23628;SDS011;11991;57.150;-2.134;2023-04-16T08:48:38;1.65;;;0.80;;
23628;SDS011;11991;57.150;-2.134;2023-04-16T08:51:09;1.02;;;0.98;;
23628;SDS011;11991;57.150;-2.134;2023-04-16T08:53:53;0.90;;;0.60;;
23628;SDS011;11991;57.150;-2.134;2023-04-16T08:56:30;1.02;;;0.90;;
23628;SDS011;11991;57.150;-2.134;2023-04-16T08:59:00;0.70;;;0.70;;
23628;SDS011;11991;57.150;-2.134;2023-04-16T09:01:34;0.80;;;0.80;;
23628;SDS011;11991;57.150;-2.134;2023-04-16T09:04:01;1.45;;;0.70;;
23628;SDS011;11991;57.150;-2.134;2023-04-16T09:06:31;2.00;;;0.80;;
23628;SDS011;11991;57.150;-2.134;2023-04-16T09:09:00;1.95;;;0.90;;
23628;SDS011;11991;57.150;-2.134;2023-04-16T09:11:30;1.45;;;0.82;;
23628;SDS011;11991;57.150;-2.134;2023-04-16T09:13:57;0.77;;;0.77;;
23628;SDS011;11991;57.150;-2.134;2023-04-16T09:16:26;0.88;;;0.75;;
23628;SDS011;11991;57.150;-2.134;2023-04-16T09:18:59;1.30;;;0.80;;
23628;SDS011;11991;57.150;-2.134;2023-04-16T09:21:26;0.77;;;0.77;;
23628;SDS011;11991;57.150;-2.134;2023-04-16T09:23:53;1.65;;;0.90;;
23628;SDS011;11991;57.150;-2.134;2023-04-16T09:26:21;1.60;;;0.80;;
23628;SDS011;11991;57.150;-2.134;2023-04-16T09:28:49;0.95;;;0.80;;
23628;SDS011;11991;57.150;-2.134;2023-04-16T09:31:17;1.55;;;1.17;;
23628;SDS011;11991;57.150;-2.134;2023-04-16T09:34:04;0.85;;;0.73;;
23628;SDS011;11991;57.150;-2.134;2023-04-16T09:36:34;1.15;;;0.65;;
23628;SDS011;11991;57.150;-2.134;2023-04-16T09:39:05;1.00;;;0.75;;
23628;SDS011;11991;57.150;-2.134;2023-04-16T09:41:35;1.42;;;0.90;;
23628;SDS011;11991;57.150;-2.134;2023-04-16T09:44:07;0.80;;;0.68;;
23628;SDS011;11991;57.150;-2.134;2023-04-16T09:46:41;0.80;;;0.80;;
23628;SDS011;11991;57.150;-2.134;2023-04-16T09:51:39;1.73;;;0.80;;
23628;SDS011;11991;57.150;-2.134;2023-04-16T09:54:10;1.02;;;0.70;;
23628;SDS011;11991;57.150;-2.134;2023-04-16T10:05:00;2.17;;;0.70;;
23628;SDS011;11991;57.150;-2.134;2023-04-16T10:07:34;0.70;;;0.70;;
23628;SDS011;11991;57.150;-2.134;2023-04-16T10:10:03;1.27;;;0.93;;
23628;SDS011;11991;57.150;-2.134;2023-04-16T10:12:30;3.05;;;0.90;;
23628;SDS011;11991;57.150;-2.134;2023-04-16T10:14:58;0.98;;;0.60;;
23628;SDS011;11991;57.150;-2.134;2023-04-16T10:17:25;0.85;;;0.50;;
23628;SDS011;11991;57.150;-2.134;2023-04-16T10:19:56;0.70;;;0.60;;
23628;SDS011;11991;57.150;-2.134;2023-04-16T10:22:24;2.03;;;0.77;;
23628;SDS011;11991;57.150;-2.134;2023-04-16T10:24:52;0.85;;;0.68;;
23628;SDS011;11991;57.150;-2.134;2023-04-16T10:27:20;2.47;;;0.90;;
23628;SDS011;11991;57.150;-2.134;2023-04-16T10:29:48;1.45;;;0.65;;
23628;SDS011;11991;57.150;-2.134;2023-04-16T10:32:16;1.00;;;0.80;;
23628;SDS011;11991;57.150;-2.134;2023-04-16T10:34:46;1.77;;;1.02;;
23628;SDS011;11991;57.150;-2.134;2023-04-16T10:37:14;0.50;;;0.50;;
23628;SDS011;11991;57.150;-2.134;2023-04-16T10:39:43;0.88;;;0.80;;
23628;SDS011;11991;57.150;-2.134;2023-04-16T10:42:13;0.63;;;0.60;;
23628;SDS011;11991;57.150;-2.134;2023-04-16T10:44:41;1.00;;;0.88;;
23628;SDS011;11991;57.150;-2.134;2023-04-16T10:47:11;0.57;;;0.57;;
23628;SDS011;11991;57.150;-2.134;2023-04-16T10:49:39;0.85;;;0.70;;
23628;SDS011;11991;57.150;-2.134;2023-04-16T10:55:28;1.58;;;1.10;;
23628;SDS011;11991;57.150;-2.134;2023-04-16T10:57:55;1.42;;;0.90;;
23628;SDS011;11991;57.150;-2.134;2023-04-16T11:00:24;2.60;;;0.85;;
23628;SDS011;11991;57.150;-2.134;2023-04-16T11:02:52;1.00;;;0.75;;
23628;SDS011;11991;57.150;-2.134;2023-04-16T11:05:21;1.25;;;0.82;;
23628;SDS011;11991;57.150;-2.134;2023-04-16T11:07:49;1.98;;;0.93;;
23628;SDS011;11991;57.150;-2.134;2023-04-16T11:10:17;1.55;;;0.88;;
23628;SDS011;11991;57.150;-2.134;2023-04-16T11:12:47;1.65;;;0.88;;
23628;SDS011;11991;57.150;-2.134;2023-04-16T11:15:16;2.20;;;0.90;;
23628;SDS011;11991;57.150;-2.134;2023-04-16T11:17:45;0.60;;;0.60;;
23628;SDS011;11991;57.150;-2.134;2023-04-16T11:20:15;1.38;;;0.90;;
23628;SDS011;11991;57.150;-2.134;2023-04-16T11:22:46;0.93;;;0.85;;
23628;SDS011;11991;57.150;-2.134;2023-04-16T11:25:27;1.48;;;0.90;;
23628;SDS011;11991;57.150;-2.134;2023-04-16T11:27:55;1.10;;;0.70;;
23628;SDS011;11991;57.150;-2.134;2023-04-16T11:30:28;1.20;;;0.80;;
23628;SDS011;11991;57.150;-2.134;2023-04-16T11:35:31;3.00;;;0.90;;
23628;SDS011;11991;57.150;-2.134;2023-04-16T11:37:58;1.90;;;1.00;;
23628;SDS011;11991;57.150;-2.134;2023-04-16T11:40:29;2.47;;;1.30;;
23628;SDS011;11991;57.150;-2.134;2023-04-16T11:43:00;0.88;;;0.70;;
23628;SDS011;11991;57.150;-2.134;2023-04-16T11:48:50;1.08;;;0.93;;
23628;SDS011;11991;57.150;-2.134;2023-04-16T11:51:19;1.63;;;0.70;;
23628;SDS011;11991;57.150;-2.134;2023-04-16T11:53:49;1.27;;;0.88;;
23628;SDS011;11991;57.150;-2.134;2023-04-16T11:56:26;2.05;;;0.88;;
23628;SDS011;11991;57.150;-2.134;2023-04-16T12:01:52;4.88;;;1.27;;
23628;SDS011;11991;57.150;-2.134;2023-04-16T12:04:24;1.55;;;0.70;;
23628;SDS011;11991;57.150;-2.134;2023-04-16T12:07:06;1.58;;;0.93;;
23628;SDS011;11991;57.150;-2.134;2023-04-16T12:09:35;0.70;;;0.60;;
23628;SDS011;11991;57.150;-2.134;2023-04-16T12:12:23;1.35;;;0.90;;
23628;SDS011;11991;57.150;-2.134;2023-04-16T12:14:57;3.50;;;1.08;;
23628;SDS011;11991;57.150;-2.134;2023-04-16T12:17:31;1.30;;;1.00;;
23628;SDS011;11991;57.150;-2.134;2023-04-16T12:20:00;1.30;;;0.85;;
23628;SDS011;11991;57.150;-2.134;2023-04-16T12:22:34;0.82;;;0.70;;
23628;SDS011;11991;57.150;-2.134;2023-04-16T12:25:04;2.83;;;0.93;;
23628;SDS011;11991;57.150;-2.134;2023-04-16T12:27:49;1.55;;;0.90;;
23628;SDS011;11991;57.150;-2.134;2023-04-16T12:30:23;1.42;;;0.60;;
23628;SDS011;11991;57.150;-2.134;2023-04-16T12:33:13;3.53;;;1.23;;
23628;SDS011;11991;57.150;-2.134;2023-04-16T12:35:42;1.02;;;0.60;;
23628;SDS011;11991;57.150;-2.134;2023-04-16T12:38:10;0.50;;;0.50;;
23628;SDS011;11991;57.150;-2.134;2023-04-16T12:40:39;1.52;;;0.75;;
23628;SDS011;11991;57.150;-2.134;2023-04-16T12:43:07;1.58;;;0.90;;
23628;SDS011;11991;57.150;-2.134;2023-04-16T12:45:36;3.80;;;0.98;;
23628;SDS011;11991;57.150;-2.134;2023-04-16T12:48:04;0.65;;;0.65;;
23628;SDS011;11991;57.150;-2.134;2023-04-16T12:50:32;0.95;;;0.60;;
23628;SDS011;11991;57.150;-2.134;2023-04-16T12:53:00;1.70;;;1.20;;
23628;SDS011;11991;57.150;-2.134;2023-04-16T12:55:27;2.55;;;0.85;;
23628;SDS011;11991;57.150;-2.134;2023-04-16T12:57:55;2.15;;;1.17;;
23628;SDS011;11991;57.150;-2.134;2023-04-16T13:00:22;1.65;;;0.93;;
23628;SDS011;11991;57.150;-2.134;2023-04-16T13:02:49;1.75;;;0.80;;
23628;SDS011;11991;57.150;-2.134;2023-04-16T13:05:17;2.90;;;1.02;;
23628;SDS011;11991;57.150;-2.134;2023-04-16T13:07:45;3.00;;;1.45;;
23628;SDS011;11991;57.150;-2.134;2023-04-16T13:10:12;2.70;;;1.02;;
23628;SDS011;11991;57.150;-2.134;2023-04-16T13:12:39;1.10;;;0.73;;
23628;SDS011;11991;57.150;-2.134;2023-04-16T13:15:07;1.70;;;0.70;;
23628;SDS011;11991;57.150;-2.134;2023-04-16T13:17:35;1.25;;;0.57;;
23628;SDS011;11991;57.150;-2.134;2023-04-16T13:20:02;0.82;;;0.55;;
23628;SDS011;11991;57.150;-2.134;2023-04-16T13:22:30;1.08;;;0.70;;
23628;SDS011;11991;57.150;-2.134;2023-04-16T13:24:57;0.82;;;0.60;;
23628;SDS011;11991;57.150;-2.134;2023-04-16T13:27:25;1.13;;;0.90;;
23628;SDS011;11991;57.150;-2.134;2023-04-16T13:29:52;1.55;;;0.98;;
23628;SDS011;11991;57.150;-2.134;2023-04-16T13:32:19;2.80;;;0.70;;
23628;SDS011;11991;57.150;-2.134;2023-04-16T13:34:48;0.68;;;0.60;;
23628;SDS011;11991;57.150;-2.134;2023-04-16T13:37:15;0.90;;;0.75;;
23628;SDS011;11991;57.150;-2.134;2023-04-16T13:39:43;3.67;;;1.30;;
23628;SDS011;11991;57.150;-2.134;2023-04-16T13:42:13;1.95;;;1.08;;
23628;SDS011;11991;57.150;-2.134;2023-04-16T13:45:09;3.05;;;0.82;;
23628;SDS011;11991;57.150;-2.134;2023-04-16T13:47:38;2.95;;;0.82;;
23628;SDS011;11991;57.150;-2.134;2023-04-16T13:50:08;2.08;;;0.90;;
23628;SDS011;11991;57.150;-2.134;2023-04-16T13:52:36;0.77;;;0.70;;
23628;SDS011;11991;57.150;-2.134;2023-04-16T13:55:03;0.88;;;0.60;;
23628;SDS011;11991;57.150;-2.134;2023-04-16T13:57:31;3.03;;;0.80;;
23628;SDS011;11991;57.150;-2.134;2023-04-16T13:59:58;1.75;;;0.70;;
23628;SDS011;11991;57.150;-2.134;2023-04-16T14:02:25;0.93;;;0.70;;
23628;SDS011;11991;57.150;-2.134;2023-04-16T14:04:53;1.25;;;0.65;;
23628;SDS011;11991;57.150;-2.134;2023-04-16T14:07:21;1.00;;;0.90;;
23628;SDS011;11991;57.150;-2.134;2023-04-16T14:09:52;1.48;;;0.60;;
23628;SDS011;11991;57.150;-2.134;2023-04-16T14:12:22;1.10;;;0.80;;
23628;SDS011;11991;57.150;-2.134;2023-04-16T14:14:53;6.05;;;1.20;;
23628;SDS011;11991;57.150;-2.134;2023-04-16T14:17:20;2.45;;;1.15;;
23628;SDS011;11991;57.150;-2.134;2023-04-16T14:19:48;3.13;;;1.30;;
23628;SDS011;11991;57.150;-2.134;2023-04-16T14:22:15;5.72;;;2.20;;
23628;SDS011;11991;57.150;-2.134;2023-04-16T14:24:49;2.10;;;1.40;;
23628;SDS011;11991;57.150;-2.134;2023-04-16T14:27:16;2.95;;;1.35;;
23628;SDS011;11991;57.150;-2.134;2023-04-16T14:29:45;1.30;;;1.13;;
23628;SDS011;11991;57.150;-2.134;2023-04-16T14:32:16;3.33;;;1.38;;
23628;SDS011;11991;57.150;-2.134;2023-04-16T14:34:44;1.95;;;1.10;;
23628;SDS011;11991;57.150;-2.134;2023-04-16T14:37:12;4.50;;;1.77;;
23628;SDS011;11991;57.150;-2.134;2023-04-16T14:39:45;2.75;;;1.40;;
23628;SDS011;11991;57.150;-2.134;2023-04-16T14:42:15;3.10;;;1.63;;
23628;SDS011;11991;57.150;-2.134;2023-04-16T14:44:42;2.45;;;0.85;;
23628;SDS011;11991;57.150;-2.134;2023-04-16T14:47:09;4.03;;;1.80;;
23628;SDS011;11991;57.150;-2.134;2023-04-16T14:49:37;4.18;;;1.85;;
23628;SDS011;11991;57.150;-2.134;2023-04-16T14:52:50;1.85;;;1.60;;
23628;SDS011;11991;57.150;-2.134;2023-04-16T14:56:17;1.77;;;1.20;;
23628;SDS011;11991;57.150;-2.134;2023-04-16T15:02:09;2.22;;;1.65;;
23628;SDS011;11991;57.150;-2.134;2023-04-16T15:04:37;2.50;;;1.35;;
23628;SDS011;11991;57.150;-2.134;2023-04-16T15:18:58;3.95;;;1.98;;
23628;SDS011;11991;57.150;-2.134;2023-04-16T15:21:28;2.33;;;1.95;;
23628;SDS011;11991;57.150;-2.134;2023-04-16T15:23:57;1.55;;;1.40;;